createdAt,value
2019-04-11T00:01:48.031Z,41.40
2019-04-11T00:04:12.203Z,41.40
2019-04-11T00:06:39.297Z,41.40
2019-04-11T00:09:08.193Z,41.50
2019-04-11T00:11:34.342Z,41.40
2019-04-11T00:14:00.279Z,41.40
2019-04-11T00:16:26.231Z,41.40
2019-04-11T00:18:52.189Z,41.30
2019-04-11T00:21:18.136Z,41.40
2019-04-11T00:23:44.169Z,41.40
2019-04-11T00:26:10.110Z,41.20
2019-04-11T00:28:36.084Z,41.30
2019-04-11T00:31:02.624Z,41.20
2019-04-11T00:33:28.574Z,41.90
2019-04-11T00:35:55.601Z,41.30
2019-04-11T00:38:21.768Z,41.20
2019-04-11T00:40:49.132Z,41.30
2019-04-11T00:43:28.071Z,41.40
2019-04-11T00:45:43.566Z,41.40
2019-04-11T00:48:09.666Z,41.20
2019-04-11T00:50:35.613Z,41.30
2019-04-11T00:53:01.588Z,41.30
2019-04-11T00:55:27.624Z,41.30
2019-04-11T00:57:53.565Z,41.30
2019-04-11T01:00:20.868Z,41.30
2019-04-11T01:02:47.438Z,41.10
2019-04-11T01:05:13.523Z,41.20
2019-04-11T01:07:39.457Z,41.30
2019-04-11T01:10:06.581Z,41.20
2019-04-11T01:12:32.745Z,41.30
2019-04-11T01:14:59.429Z,41.10
2019-04-11T01:17:25.625Z,41.20
2019-04-11T01:19:51.587Z,41.20
2019-04-11T01:22:18.179Z,41.20
2019-04-11T01:24:44.193Z,41.30
2019-04-11T01:27:10.149Z,41.30
2019-04-11T01:29:36.081Z,41.30
2019-04-11T01:32:04.272Z,41.30
2019-04-11T01:34:30.769Z,41.30
2019-04-11T01:36:57.556Z,41.40
2019-04-11T01:39:32.716Z,41.90
2019-04-11T01:41:58.807Z,41.40
2019-04-11T01:44:24.921Z,41.30
2019-04-11T01:46:51.107Z,41.30
2019-04-11T01:49:19.792Z,41.80
2019-04-11T01:51:45.897Z,41.30
2019-04-11T01:54:11.828Z,41.30
2019-04-11T01:56:39.155Z,41.40
2019-04-11T01:59:05.257Z,41.30
2019-04-11T02:01:33.106Z,41.30
2019-04-11T02:04:03.721Z,41.30
2019-04-11T02:06:29.894Z,41.30
2019-04-11T02:08:55.969Z,41.20
2019-04-11T02:11:22.001Z,41.20
2019-04-11T02:13:48.236Z,41.20
2019-04-11T02:16:14.319Z,41.20
2019-04-11T02:18:40.405Z,41.30
2019-04-11T02:21:06.417Z,41.20
2019-04-11T02:23:37.333Z,41.30
2019-04-11T02:26:09.954Z,41.30
2019-04-11T02:28:37.014Z,41.20
2019-04-11T02:31:04.993Z,41.30
2019-04-11T02:33:32.829Z,41.20
2019-04-11T02:36:00.706Z,41.30
2019-04-11T02:38:28.311Z,41.40
2019-04-11T02:40:57.809Z,41.30
2019-04-11T02:43:25.628Z,41.30
2019-04-11T02:46:05.166Z,41.30
2019-04-11T02:48:20.676Z,41.30
2019-04-11T02:50:47.805Z,41.30
2019-04-11T02:53:14.794Z,41.90
2019-04-11T02:55:41.644Z,41.40
2019-04-11T02:58:08.254Z,41.20
2019-04-11T03:00:37.194Z,41.20
2019-04-11T03:03:03.571Z,41.40
2019-04-11T03:05:30.996Z,41.30
2019-04-11T03:07:58.376Z,41.20
2019-04-11T03:10:24.899Z,41.20
2019-04-11T03:12:52.509Z,41.30
2019-04-11T03:15:31.868Z,41.20
2019-04-11T03:17:48.716Z,41.20
2019-04-11T03:20:23.932Z,41.40
2019-04-11T03:22:42.605Z,41.20
2019-04-11T03:25:08.840Z,41.50
2019-04-11T03:27:34.995Z,41.40
2019-04-11T03:30:03.260Z,41.40
2019-04-11T03:33:17.392Z,41.40
2019-04-11T03:35:51.893Z,41.30
2019-04-11T03:37:50.323Z,41.30
2019-04-11T03:40:11.708Z,41.30
2019-04-11T03:42:41.694Z,41.30
2019-04-11T03:45:11.340Z,41.30
2019-04-11T03:47:31.916Z,41.30
2019-04-11T03:49:51.442Z,41.30
2019-04-11T03:52:15.080Z,41.20
2019-04-11T03:54:42.686Z,41.30
2019-04-11T03:57:09.676Z,41.30
2019-04-11T03:59:36.721Z,41.20
2019-04-11T04:02:05.578Z,41.30
2019-04-11T04:04:32.754Z,41.20
2019-04-11T04:06:58.895Z,41.20
2019-04-11T04:09:26.856Z,41.20
2019-04-11T04:11:54.612Z,41.20
2019-04-11T04:14:29.108Z,41.20
2019-04-11T04:17:03.768Z,41.30
2019-04-11T04:19:37.456Z,41.20
2019-04-11T04:22:08.826Z,41.20
2019-04-11T04:24:39.777Z,41.30
2019-04-11T04:27:04.648Z,41.10
2019-04-11T04:29:32.254Z,41.30
2019-04-11T04:31:59.751Z,41.30
2019-04-11T04:34:26.057Z,41.60
2019-04-11T04:36:53.616Z,41.70
2019-04-11T04:39:20.245Z,41.70
2019-04-11T04:41:55.416Z,41.90
2019-04-11T04:44:14.454Z,41.90
2019-04-11T04:46:55.554Z,41.90
2019-04-11T04:49:09.182Z,41.90
2019-04-11T04:51:37.269Z,41.90
2019-04-11T04:54:03.952Z,41.90
2019-04-11T04:56:32.214Z,41.90
2019-04-11T04:58:58.546Z,42.20
2019-04-11T05:01:26.587Z,42.10
2019-04-11T05:03:53.979Z,42.20
2019-04-11T05:06:20.745Z,42.30
2019-04-11T05:08:47.233Z,42.30
2019-04-11T05:11:13.981Z,42.40
2019-04-11T05:13:41.259Z,42.50
2019-04-11T05:16:16.881Z,42.40
2019-04-11T05:18:36.461Z,42.50
2019-04-11T05:21:03.239Z,42.70
2019-04-11T05:23:29.792Z,42.60
2019-04-11T05:25:56.842Z,42.70
2019-04-11T05:28:23.444Z,42.50
2019-04-11T05:30:49.648Z,42.10
2019-04-11T05:33:15.741Z,41.90
2019-04-11T05:35:41.840Z,41.40
2019-04-11T05:38:08.373Z,40.60
2019-04-11T05:40:35.157Z,40.90
2019-04-11T05:43:01.830Z,41.20
2019-04-11T05:45:28.000Z,40.50
2019-04-11T05:47:56.375Z,40.90
2019-04-11T05:50:28.463Z,40.80
2019-04-11T05:52:54.867Z,40.80
2019-04-11T05:55:21.009Z,40.90
2019-04-11T05:57:47.163Z,40.30
2019-04-11T06:00:28.356Z,40.60
2019-04-11T06:03:05.829Z,40.50
2019-04-11T06:05:37.921Z,40.50
2019-04-11T06:08:06.586Z,40.40
2019-04-11T06:10:39.016Z,40.30
2019-04-11T06:13:04.633Z,40.20
2019-04-11T06:15:33.280Z,40.20
2019-04-11T06:18:01.349Z,40.20
2019-04-11T06:20:35.571Z,40.20
2019-04-11T06:23:06.718Z,40.10
2019-04-11T06:25:43.548Z,40.00
2019-04-11T06:28:11.743Z,39.90
2019-04-11T06:30:56.922Z,39.70
2019-04-11T06:33:32.210Z,40.30
2019-04-11T06:36:13.782Z,39.40
2019-04-11T06:38:45.052Z,39.30
2019-04-11T06:41:14.483Z,39.10
2019-04-11T06:43:45.464Z,39.70
2019-04-11T06:46:13.340Z,39.00
2019-04-11T06:48:47.656Z,38.90
2019-04-11T06:51:19.792Z,38.90
2019-04-11T06:53:48.410Z,38.90
2019-04-11T06:56:16.833Z,38.80
2019-04-11T06:58:59.624Z,38.80
2019-04-11T07:01:27.983Z,38.90
2019-04-11T07:03:55.997Z,39.00
2019-04-11T07:06:23.931Z,39.20
2019-04-11T07:09:10.374Z,38.80
2019-04-11T07:11:43.282Z,38.80
2019-04-11T07:14:14.672Z,38.90
2019-04-11T07:17:04.390Z,39.00
2019-04-11T07:19:29.382Z,39.00
2019-04-11T07:21:56.053Z,39.10
2019-04-11T07:24:30.337Z,39.30
2019-04-11T07:26:58.819Z,39.30
2019-04-11T07:29:26.822Z,39.30
2019-04-11T07:31:54.831Z,39.30
2019-04-11T07:34:26.775Z,39.30
2019-04-11T07:37:12.688Z,39.30
2019-04-11T07:39:52.751Z,39.30
2019-04-11T07:42:38.947Z,39.30
2019-04-11T07:45:11.648Z,39.30
2019-04-11T07:47:49.017Z,39.30
2019-04-11T07:50:17.914Z,39.30
2019-04-11T07:52:48.104Z,39.20
2019-04-11T07:55:16.747Z,39.20
2019-04-11T07:57:47.507Z,39.20
2019-04-11T08:00:34.947Z,39.30
2019-04-11T08:03:06.401Z,39.30
2019-04-11T08:05:34.641Z,39.30
2019-04-11T08:08:09.452Z,39.50
2019-04-11T08:10:48.466Z,39.40
2019-04-11T08:13:26.265Z,39.60
2019-04-11T08:15:57.911Z,39.60
2019-04-11T08:18:43.187Z,39.60
2019-04-11T08:21:28.325Z,39.60
2019-04-11T08:24:08.517Z,39.60
2019-04-11T08:26:42.309Z,39.60
2019-04-11T08:29:12.306Z,39.60
2019-04-11T08:31:38.526Z,39.60
2019-04-11T08:34:04.898Z,39.60
2019-04-11T08:36:47.147Z,39.60
2019-04-11T08:39:15.832Z,39.70
2019-04-11T08:41:47.539Z,39.70
2019-04-11T08:44:13.643Z,39.80
2019-04-11T08:46:42.620Z,39.80
2019-04-11T08:49:17.319Z,39.90
2019-04-11T08:51:44.632Z,39.80
2019-04-11T08:54:29.312Z,39.90
2019-04-11T08:56:55.741Z,39.80
2019-04-11T08:59:36.001Z,39.90
2019-04-11T09:02:02.689Z,39.90
2019-04-11T09:04:48.238Z,39.50
2019-04-11T09:07:17.022Z,38.50
2019-04-11T09:09:57.736Z,37.50
2019-04-11T09:12:24.618Z,36.40
2019-04-11T09:15:10.755Z,35.70
2019-04-11T09:17:38.806Z,34.80
2019-04-11T09:20:07.505Z,34.10
2019-04-11T09:22:41.582Z,34.10
2019-04-11T09:25:10.759Z,34.30
2019-04-11T09:27:57.650Z,34.70
2019-04-11T09:30:43.148Z,35.10
2019-04-11T09:33:28.873Z,35.40
2019-04-11T09:36:13.736Z,35.90
2019-04-11T09:38:42.344Z,36.10
2019-04-11T09:41:28.164Z,36.30
2019-04-11T09:43:56.236Z,36.60
2019-04-11T09:46:24.178Z,36.80
2019-04-11T09:49:04.516Z,36.90
2019-04-11T09:51:33.766Z,37.00
2019-04-11T09:54:11.968Z,37.10
2019-04-11T09:56:56.721Z,37.30
2019-04-11T09:59:27.423Z,37.30
2019-04-11T10:02:10.674Z,37.50
2019-04-11T10:04:37.828Z,37.50
2019-04-11T10:07:23.695Z,37.60
2019-04-11T10:10:00.611Z,37.60
2019-04-11T10:12:31.835Z,37.70
2019-04-11T10:14:59.153Z,37.80
2019-04-11T10:17:30.086Z,37.90
2019-04-11T10:19:56.209Z,37.90
2019-04-11T10:22:40.933Z,37.90
2019-04-11T10:25:08.796Z,38.00
2019-04-11T10:27:53.279Z,38.00
2019-04-11T10:30:33.599Z,38.00
2019-04-11T10:33:14.924Z,38.10
2019-04-11T10:36:00.783Z,38.10
2019-04-11T10:38:26.937Z,38.10
2019-04-11T10:41:00.941Z,38.10
2019-04-11T10:43:27.109Z,38.10
2019-04-11T10:46:07.185Z,38.10
2019-04-11T10:48:45.661Z,38.00
2019-04-11T10:51:17.109Z,38.10
2019-04-11T10:53:43.744Z,38.10
2019-04-11T10:56:28.409Z,38.30
2019-04-11T10:58:55.421Z,38.30
2019-04-11T11:01:25.573Z,38.40
2019-04-11T11:03:58.962Z,38.90
2019-04-11T11:06:29.769Z,38.90
2019-04-11T11:09:01.808Z,38.80
2019-04-11T11:11:30.434Z,38.50
2019-04-11T11:14:15.297Z,38.80
2019-04-11T11:16:45.467Z,38.80
2019-04-11T11:19:46.583Z,38.90
2019-04-11T11:22:00.437Z,39.30
2019-04-11T11:24:46.379Z,40.50
2019-04-11T11:27:12.386Z,41.50
2019-04-11T11:29:47.335Z,41.90
2019-04-11T11:32:14.762Z,42.20
2019-04-11T11:34:49.243Z,42.30
2019-04-11T11:37:31.236Z,42.70
2019-04-11T11:40:17.204Z,42.40
2019-04-11T11:42:52.601Z,42.20
2019-04-11T11:45:21.476Z,42.10
2019-04-11T11:47:55.549Z,42.10
2019-04-11T11:50:23.944Z,42.70
2019-04-11T11:53:12.689Z,41.80
2019-04-11T11:55:38.341Z,41.80
2019-04-11T11:58:23.696Z,42.00
2019-04-11T12:00:53.875Z,41.80
2019-04-11T12:03:23.455Z,42.10
2019-04-11T12:05:53.337Z,42.00
2019-04-11T12:08:20.433Z,41.80
2019-04-11T12:10:51.485Z,41.70
2019-04-11T12:13:19.459Z,41.60
2019-04-11T12:16:06.007Z,41.90
2019-04-11T12:18:47.202Z,42.10
2019-04-11T12:21:23.852Z,42.00
2019-04-11T12:24:01.158Z,42.20
2019-04-11T12:26:23.336Z,42.50
2019-04-11T12:28:52.170Z,42.10
2019-04-11T12:31:19.502Z,41.80
2019-04-11T12:33:54.031Z,41.70
2019-04-11T12:36:23.016Z,41.80
2019-04-11T12:39:00.185Z,42.00
2019-04-11T12:41:28.061Z,41.60
2019-04-11T12:44:05.096Z,41.60
2019-04-11T12:46:41.996Z,41.60
2019-04-11T12:49:19.132Z,41.50
2019-04-11T12:52:03.688Z,41.40
2019-04-11T12:54:34.325Z,41.40
2019-04-11T12:57:18.972Z,41.30
2019-04-11T12:59:46.856Z,41.20
2019-04-11T13:02:31.770Z,41.20
2019-04-11T13:04:57.754Z,41.10
2019-04-11T13:07:31.654Z,41.10
2019-04-11T13:09:59.108Z,41.20
2019-04-11T13:12:26.973Z,41.20
2019-04-11T13:15:00.961Z,41.10
2019-04-11T13:17:37.786Z,41.20
2019-04-11T13:20:22.297Z,41.10
2019-04-11T13:22:50.326Z,41.10
2019-04-11T13:25:36.410Z,41.20
2019-04-11T13:28:02.480Z,41.10
2019-04-11T13:30:49.038Z,41.30
2019-04-11T13:33:16.912Z,41.20
2019-04-11T13:36:01.684Z,41.20
2019-04-11T13:38:29.592Z,41.20
2019-04-11T13:41:09.578Z,41.20
2019-04-11T13:43:40.929Z,41.30
2019-04-11T13:46:09.505Z,41.20
2019-04-11T13:48:54.348Z,41.30
2019-04-11T13:51:31.575Z,41.30
2019-04-11T13:54:16.085Z,41.30
2019-04-11T13:57:00.857Z,41.30
2019-04-11T13:59:34.745Z,41.60
2019-04-11T14:02:14.703Z,41.70
2019-04-11T14:04:54.218Z,41.70
2019-04-11T14:07:21.248Z,41.70
2019-04-11T14:09:50.352Z,41.80
2019-04-11T14:12:16.297Z,41.80
2019-04-11T14:14:42.786Z,41.80
2019-04-11T14:17:12.025Z,41.70
2019-04-11T14:19:57.354Z,41.70
2019-04-11T14:22:28.968Z,41.70
2019-04-11T14:24:55.017Z,41.80
2019-04-11T14:27:26.194Z,41.80
2019-04-11T14:29:57.083Z,41.70
2019-04-11T14:32:25.030Z,41.80
2019-04-11T14:34:52.954Z,42.40
2019-04-11T14:37:38.428Z,41.80
2019-04-11T14:40:12.311Z,41.80
2019-04-11T14:42:56.987Z,41.80
2019-04-11T14:45:27.657Z,41.80
2019-04-11T14:48:14.061Z,41.80
2019-04-11T14:50:59.499Z,41.80
2019-04-11T14:53:46.653Z,41.80
2019-04-11T14:56:15.035Z,41.90
2019-04-11T14:58:59.578Z,41.90
2019-04-11T15:01:28.192Z,41.90
2019-04-11T15:04:14.058Z,41.90
2019-04-11T15:06:47.116Z,42.20
2019-04-11T15:09:17.779Z,42.10
2019-04-11T15:11:51.487Z,42.10
2019-04-11T15:14:36.019Z,41.80
2019-04-11T15:17:20.778Z,40.80
2019-04-11T15:19:48.733Z,40.00
2019-04-11T15:22:16.723Z,38.80
2019-04-11T15:24:44.703Z,37.50
2019-04-11T15:27:28.075Z,36.40
2019-04-11T15:29:55.949Z,34.90
2019-04-11T15:32:26.574Z,34.00
2019-04-11T15:34:53.050Z,33.50
2019-04-11T15:37:39.370Z,33.00
2019-04-11T15:40:10.301Z,33.00
2019-04-11T15:42:53.319Z,33.20
2019-04-11T15:45:39.270Z,33.30
2019-04-11T15:48:07.208Z,33.40
2019-04-11T15:50:51.550Z,33.60
2019-04-11T15:53:36.957Z,33.90
2019-04-11T15:56:08.378Z,33.90
2019-04-11T15:58:36.403Z,34.20
2019-04-11T16:01:20.900Z,34.30
2019-04-11T16:03:48.850Z,34.50
2019-04-11T16:06:19.801Z,34.50
2019-04-11T16:08:45.789Z,34.60
2019-04-11T16:11:14.140Z,35.10
2019-04-11T16:13:54.189Z,35.00
2019-04-11T16:16:22.153Z,35.70
2019-04-11T16:18:53.227Z,35.20
2019-04-11T16:21:24.421Z,35.50
2019-04-11T16:24:05.190Z,35.50
2019-04-11T16:26:33.145Z,35.80
2019-04-11T16:29:01.275Z,35.90
2019-04-11T16:31:29.355Z,36.00
2019-04-11T16:34:00.206Z,36.00
2019-04-11T16:36:28.150Z,36.10
2019-04-11T16:39:05.076Z,36.30
2019-04-11T16:41:51.642Z,36.50
2019-04-11T16:44:37.746Z,36.60
2019-04-11T16:47:08.615Z,36.70
2019-04-11T16:49:34.564Z,36.80
2019-04-11T16:52:00.530Z,36.80
2019-04-11T16:54:26.487Z,36.80
2019-04-11T16:56:52.448Z,36.90
2019-04-11T16:59:20.078Z,36.90
2019-04-11T17:01:46.236Z,37.00
2019-04-11T17:04:12.201Z,37.00
2019-04-11T17:06:42.799Z,37.00
2019-04-11T17:09:19.774Z,37.10
2019-04-11T17:11:45.804Z,37.10
2019-04-11T17:14:12.010Z,37.10
2019-04-11T17:16:38.232Z,37.20
2019-04-11T17:19:05.548Z,37.30
2019-04-11T17:21:42.673Z,37.40
2019-04-11T17:23:59.964Z,37.40
2019-04-11T17:26:25.904Z,37.60
2019-04-11T17:28:54.496Z,37.70
2019-04-11T17:31:19.750Z,37.80
2019-04-11T17:33:45.700Z,37.90
2019-04-11T17:36:11.674Z,37.90
2019-04-11T17:38:37.809Z,37.90
2019-04-11T17:41:04.014Z,38.00
2019-04-11T17:43:30.082Z,38.10
2019-04-11T17:45:57.106Z,38.10
2019-04-11T17:48:23.726Z,38.10
2019-04-11T17:50:49.998Z,38.10
2019-04-11T17:53:16.069Z,38.20
2019-04-11T17:55:42.010Z,38.10
2019-04-11T17:58:07.980Z,38.10
2019-04-11T18:00:35.839Z,38.20
2019-04-11T18:03:01.805Z,38.30
2019-04-11T18:05:27.741Z,38.20
2019-04-11T18:07:53.710Z,38.30
2019-04-11T18:10:19.700Z,38.30
2019-04-11T18:12:45.666Z,38.40
2019-04-11T18:15:11.605Z,38.40
2019-04-11T18:17:37.551Z,38.60
2019-04-11T18:20:04.563Z,38.60
2019-04-11T18:22:31.356Z,38.60
2019-04-11T18:24:57.341Z,39.00
2019-04-11T18:27:23.308Z,38.80
2019-04-11T18:29:52.534Z,38.70
2019-04-11T18:32:17.120Z,38.70
2019-04-11T18:34:43.114Z,38.80
2019-04-11T18:37:09.153Z,38.80
2019-04-11T18:39:36.009Z,38.90
2019-04-11T18:42:02.694Z,38.90
2019-04-11T18:44:31.654Z,39.10
2019-04-11T18:46:57.897Z,39.10
2019-04-11T18:49:23.876Z,39.10
2019-04-11T18:51:50.769Z,39.00
2019-04-11T18:54:17.716Z,39.00
2019-04-11T18:56:43.770Z,39.00
2019-04-11T18:59:09.729Z,39.00
2019-04-11T19:01:39.245Z,39.00
2019-04-11T19:04:03.582Z,39.00
2019-04-11T19:06:29.622Z,38.90
2019-04-11T19:08:55.609Z,39.00
2019-04-11T19:11:21.724Z,39.00
2019-04-11T19:13:47.814Z,38.90
2019-04-11T19:16:16.164Z,39.80
2019-04-11T19:18:41.688Z,39.10
2019-04-11T19:21:07.647Z,38.90
2019-04-11T19:23:33.635Z,39.00
2019-04-11T19:25:59.697Z,38.90
2019-04-11T19:28:25.771Z,39.00
2019-04-11T19:30:54.001Z,39.00
2019-04-11T19:33:19.697Z,39.00
2019-04-11T19:35:45.644Z,39.30
2019-04-11T19:38:25.617Z,39.10
2019-04-11T19:40:52.008Z,39.20
2019-04-11T19:43:19.148Z,39.20
2019-04-11T19:45:49.801Z,39.20
2019-04-11T19:48:14.649Z,39.10
2019-04-11T19:50:41.427Z,39.10
2019-04-11T19:53:07.374Z,39.10
2019-04-11T19:55:35.337Z,39.10
2019-04-11T19:58:01.377Z,39.10
2019-04-11T20:00:27.427Z,39.10
2019-04-11T20:02:54.190Z,39.10
2019-04-11T20:05:20.855Z,39.10
2019-04-11T20:07:46.813Z,39.10
2019-04-11T20:10:12.771Z,39.10
2019-04-11T20:12:38.713Z,39.10
2019-04-11T20:15:05.647Z,39.20
2019-04-11T20:17:43.472Z,39.20
2019-04-11T20:20:01.385Z,39.30
2019-04-11T20:22:27.489Z,40.00
2019-04-11T20:24:53.483Z,39.50
2019-04-11T20:27:20.258Z,39.50
2019-04-11T20:29:51.010Z,39.40
2019-04-11T20:32:14.889Z,39.20
2019-04-11T20:34:40.871Z,39.20
2019-04-11T20:37:06.947Z,39.20
2019-04-11T20:39:32.981Z,39.10
2019-04-11T20:41:58.993Z,39.20
2019-04-11T20:44:27.115Z,39.30
2019-04-11T20:46:52.831Z,39.40
2019-04-11T20:49:18.759Z,39.90
2019-04-11T20:51:44.733Z,39.90
2019-04-11T20:54:10.689Z,39.70
2019-04-11T20:56:39.894Z,39.60
2019-04-11T20:59:04.510Z,39.60
2019-04-11T21:01:30.464Z,39.50
2019-04-11T21:04:00.103Z,39.70
2019-04-11T21:06:24.297Z,39.80
2019-04-11T21:08:50.268Z,39.90
2019-04-11T21:11:18.611Z,39.80
2019-04-11T21:13:44.153Z,39.90
2019-04-11T21:16:10.133Z,39.90
2019-04-11T21:18:36.092Z,39.90
2019-04-11T21:21:02.057Z,39.90
2019-04-11T21:23:29.713Z,39.90
2019-04-11T21:25:58.917Z,39.90
2019-04-11T21:28:23.760Z,39.90
2019-04-11T21:30:49.878Z,39.80
2019-04-11T21:33:15.830Z,39.60
2019-04-11T21:35:41.796Z,39.80
2019-04-11T21:38:07.763Z,39.90
2019-04-11T21:40:35.949Z,39.80
2019-04-11T21:43:05.993Z,39.90
2019-04-11T21:45:29.536Z,39.80
2019-04-11T21:47:55.514Z,39.70
2019-04-11T21:50:21.484Z,39.70
2019-04-11T21:52:47.569Z,39.70
2019-04-11T21:55:15.994Z,39.70
2019-04-11T21:57:41.461Z,39.80
2019-04-11T22:00:07.516Z,39.80
2019-04-11T22:02:33.490Z,40.40
2019-04-11T22:04:59.562Z,39.70
2019-04-11T22:07:25.528Z,39.60
2019-04-11T22:09:51.600Z,39.70
2019-04-11T22:12:17.648Z,39.60
2019-04-11T22:14:43.613Z,39.60
2019-04-11T22:17:09.580Z,39.70
2019-04-11T22:19:35.525Z,39.80
2019-04-11T22:22:01.474Z,39.60
2019-04-11T22:24:27.516Z,39.50
2019-04-11T22:26:53.470Z,39.60
2019-04-11T22:29:19.414Z,39.60
2019-04-11T22:31:45.360Z,39.50
2019-04-11T22:34:29.872Z,39.50
2019-04-11T22:36:59.578Z,39.50
2019-04-11T22:39:23.865Z,39.60
2019-04-11T22:41:49.803Z,39.60
2019-04-11T22:44:15.761Z,39.60
2019-04-11T22:46:41.832Z,39.60
2019-04-11T22:49:08.852Z,39.50
2019-04-11T22:51:35.535Z,39.50
2019-04-11T22:54:01.494Z,39.60
2019-04-11T22:56:27.462Z,39.60
2019-04-11T22:58:53.423Z,39.40
2019-04-11T23:01:20.289Z,39.50
2019-04-11T23:03:51.044Z,39.60
2019-04-11T23:06:17.354Z,39.50
2019-04-11T23:08:43.728Z,39.50
2019-04-11T23:11:09.695Z,39.40
2019-04-11T23:13:35.758Z,39.40
2019-04-11T23:16:01.691Z,39.50
2019-04-11T23:18:27.690Z,39.50
2019-04-11T23:20:55.897Z,39.50
2019-04-11T23:23:21.466Z,39.60
2019-04-11T23:25:47.429Z,39.60
2019-04-11T23:28:15.721Z,39.50
2019-04-11T23:30:41.363Z,39.60
2019-04-11T23:33:07.313Z,39.50
2019-04-11T23:35:33.317Z,39.50
2019-04-11T23:37:59.366Z,40.10
2019-04-11T23:40:25.330Z,39.40
2019-04-11T23:42:51.305Z,39.30
2019-04-11T23:45:20.737Z,39.30
2019-04-11T23:47:46.834Z,39.40
2019-04-11T23:50:12.899Z,39.30
2019-04-11T23:52:38.937Z,39.30
2019-04-11T23:55:04.925Z,39.30
2019-04-11T23:57:31.286Z,39.20
2019-04-11T23:59:59.772Z,40.00
